Time;durP1;ratioP1;P1;durP2;ratioP2;P2;SDS_P1;SDS_P2;PMS_P1;PMS_P2;Temp;Humidity;BMP_temperature;BMP_pressure;BME280_temperature;BME280_humidity;BME280_pressure;Samples;Min_cycle;Max_cycle;Signal;HPM_P1;HPM_P2
2024/01/17 00:01:08;;;;;;;12.20;7.70;;;-0.70;99.90;;;;;;5011769;28;20265;-64
2024/01/17 00:03:34;;;;;;;13.20;7.47;;;-0.60;99.90;;;;;;5018361;28;20206;-63
2024/01/17 00:06:01;;;;;;;12.07;7.33;;;-0.60;99.90;;;;;;5012905;28;20213;-64
2024/01/17 00:08:28;;;;;;;11.63;7.27;;;-0.60;99.90;;;;;;5014792;28;20211;-64
2024/01/17 00:10:54;;;;;;;13.17;8.00;;;-0.60;99.90;;;;;;5015450;28;20214;-61
2024/01/17 00:13:21;;;;;;;11.30;7.13;;;-0.60;99.90;;;;;;5012618;28;20602;-64
2024/01/17 00:15:48;;;;;;;12.20;7.67;;;-0.70;99.90;;;;;;5012124;28;20219;-62
2024/01/17 00:18:16;;;;;;;16.53;9.87;;;-0.90;99.90;;;;;;5012122;28;20272;-63
2024/01/17 00:20:42;;;;;;;9.90;7.17;;;-0.90;99.90;;;;;;5012753;28;20207;-62
2024/01/17 00:23:09;;;;;;;11.63;7.43;;;-1.00;99.90;;;;;;5012198;28;20234;-64
2024/01/17 00:25:36;;;;;;;12.37;6.87;;;-1.00;99.90;;;;;;5012283;28;20265;-62
2024/01/17 00:28:03;;;;;;;11.87;7.57;;;-0.90;99.90;;;;;;5012485;28;20307;-64
2024/01/17 00:30:31;;;;;;;11.47;7.00;;;-0.90;99.90;;;;;;5013217;28;20239;-63
2024/01/17 00:32:58;;;;;;;10.67;7.33;;;-0.80;99.90;;;;;;5024803;28;20242;-64
2024/01/17 00:35:26;;;;;;;10.73;6.80;;;-0.80;99.90;;;;;;5030539;28;20230;-63
2024/01/17 00:37:53;;;;;;;10.80;6.43;;;-0.80;99.90;;;;;;5033043;28;20211;-65
2024/01/17 00:40:20;;;;;;;11.60;7.00;;;-0.80;99.90;;;;;;5025384;28;20672;-63
2024/01/17 00:42:46;;;;;;;9.37;6.70;;;-0.80;99.90;;;;;;5015716;28;20237;-59
2024/01/17 00:45:14;;;;;;;10.40;7.03;;;-0.80;99.90;;;;;;5019884;28;20670;-62
2024/01/17 00:47:40;;;;;;;10.23;6.23;;;-0.60;99.90;;;;;;5010535;28;20276;-63
2024/01/17 00:50:07;;;;;;;11.77;7.33;;;-0.60;99.90;;;;;;5015902;28;20214;-61
2024/01/17 00:52:35;;;;;;;10.27;6.90;;;-0.40;99.90;;;;;;5014952;28;20277;-62
2024/01/17 00:55:02;;;;;;;13.67;7.50;;;-0.30;99.90;;;;;;5014798;28;20708;-64
2024/01/17 00:57:29;;;;;;;11.37;7.63;;;-0.10;99.90;;;;;;5013622;28;20214;-62
2024/01/17 00:59:55;;;;;;;13.90;7.23;;;0.00;99.90;;;;;;5023254;28;20214;-61
2024/01/17 01:02:22;;;;;;;11.77;7.07;;;0.10;99.90;;;;;;5015363;28;20231;-62
2024/01/17 01:04:49;;;;;;;13.83;6.60;;;0.10;99.90;;;;;;5023503;28;20205;-60
2024/01/17 01:07:16;;;;;;;12.43;7.07;;;0.00;99.90;;;;;;5026736;28;20202;-60
2024/01/17 01:09:44;;;;;;;9.20;6.23;;;-0.30;99.90;;;;;;5026903;28;20210;-61
2024/01/17 01:12:10;;;;;;;10.10;6.43;;;-0.30;99.90;;;;;;5023402;28;20223;-60
2024/01/17 01:14:37;;;;;;;12.13;6.50;;;-0.50;99.90;;;;;;5023077;28;20231;-59
2024/01/17 01:17:04;;;;;;;11.83;7.13;;;-0.50;99.90;;;;;;5025862;28;20211;-59
2024/01/17 01:19:31;;;;;;;10.50;6.87;;;-0.30;99.90;;;;;;5027152;28;20207;-60
2024/01/17 01:21:57;;;;;;;9.67;7.00;;;-0.20;99.90;;;;;;5025519;28;20226;-59
2024/01/17 01:24:24;;;;;;;11.53;6.77;;;0.00;99.90;;;;;;5023576;28;20269;-60
2024/01/17 01:26:52;;;;;;;15.17;7.40;;;0.20;99.90;;;;;;5023800;28;20273;-60
2024/01/17 01:29:19;;;;;;;10.23;6.37;;;0.30;99.90;;;;;;5026763;28;20207;-61
2024/01/17 01:31:46;;;;;;;12.30;6.93;;;0.50;99.90;;;;;;5026556;28;20248;-59
2024/01/17 01:34:12;;;;;;;12.73;6.77;;;0.60;99.90;;;;;;5023113;28;20222;-59
2024/01/17 01:36:39;;;;;;;9.67;6.80;;;0.60;99.90;;;;;;5023340;28;20677;-61
2024/01/17 01:39:06;;;;;;;10.10;6.60;;;0.60;99.90;;;;;;5025527;28;20253;-59
2024/01/17 01:41:33;;;;;;;12.40;6.80;;;0.70;99.90;;;;;;5025923;28;20275;-59
2024/01/17 01:44:01;;;;;;;11.83;7.43;;;0.70;99.90;;;;;;5024862;28;20206;-59
2024/01/17 01:46:29;;;;;;;12.30;6.80;;;0.60;99.90;;;;;;5023457;28;20322;-59
2024/01/17 01:48:56;;;;;;;10.63;7.00;;;0.50;99.90;;;;;;5023966;28;20234;-59
2024/01/17 01:51:24;;;;;;;11.83;7.03;;;0.30;99.90;;;;;;5026168;28;20206;-59
2024/01/17 01:53:53;;;;;;;11.10;7.10;;;-0.10;99.90;;;;;;5025939;28;20226;-60
2024/01/17 01:56:24;;;;;;;9.37;6.37;;;-0.10;99.90;;;;;;5023814;28;20624;-61
2024/01/17 01:58:53;;;;;;;10.90;6.63;;;-0.10;99.90;;;;;;5025210;28;20211;-59
2024/01/17 02:01:22;;;;;;;10.57;6.80;;;-0.20;99.90;;;;;;5029005;28;20205;-59
2024/01/17 02:03:49;;;;;;;11.37;7.10;;;-0.30;99.90;;;;;;5035307;28;20211;-58
2024/01/17 02:06:16;;;;;;;10.30;6.50;;;-0.20;99.90;;;;;;5041204;28;20203;-59
2024/01/17 02:08:43;;;;;;;10.63;6.77;;;-0.10;99.90;;;;;;5041084;28;20241;-59
2024/01/17 02:11:09;;;;;;;9.87;7.10;;;-0.20;99.90;;;;;;5042868;28;20260;-59
2024/01/17 02:13:36;;;;;;;9.80;6.30;;;-0.10;99.90;;;;;;5043699;28;20483;-59
2024/01/17 02:16:03;;;;;;;10.03;6.70;;;0.00;99.90;;;;;;5043736;28;20211;-60
2024/01/17 02:18:31;;;;;;;10.17;6.00;;;0.30;99.90;;;;;;5044291;28;20225;-59
2024/01/17 02:20:58;;;;;;;12.07;6.40;;;0.40;99.90;;;;;;5042798;28;20217;-59
2024/01/17 02:23:26;;;;;;;8.80;6.20;;;0.50;99.90;;;;;;5037101;28;20230;-59
2024/01/17 02:25:56;;;;;;;10.40;6.73;;;0.60;99.90;;;;;;5037956;28;20217;-59
2024/01/17 02:28:24;;;;;;;11.53;6.30;;;0.80;99.90;;;;;;5043140;28;20195;-59
2024/01/17 02:30:51;;;;;;;11.07;7.30;;;0.90;99.90;;;;;;5042829;28;20226;-62
2024/01/17 02:33:17;;;;;;;10.10;6.83;;;1.10;99.90;;;;;;5039026;28;20219;-59
2024/01/17 02:35:44;;;;;;;11.27;6.50;;;1.20;99.90;;;;;;5038770;28;20226;-59
2024/01/17 02:38:11;;;;;;;12.60;6.73;;;1.30;99.90;;;;;;5042639;28;20240;-59
2024/01/17 02:40:38;;;;;;;13.50;7.00;;;1.40;99.90;;;;;;5044961;28;20213;-59
2024/01/17 02:43:06;;;;;;;9.57;6.70;;;1.50;99.90;;;;;;5041226;28;20254;-60
2024/01/17 02:45:33;;;;;;;12.70;6.67;;;1.60;99.90;;;;;;5041948;28;20237;-60
2024/01/17 02:48:00;;;;;;;10.70;7.07;;;1.60;99.90;;;;;;5026636;28;20213;-59
2024/01/17 02:50:27;;;;;;;13.97;6.67;;;1.70;99.90;;;;;;5022348;28;20221;-60
2024/01/17 02:52:54;;;;;;;11.20;6.90;;;1.60;99.90;;;;;;5021494;28;20227;-59
2024/01/17 02:55:22;;;;;;;11.97;7.10;;;1.60;99.90;;;;;;5025406;28;20534;-59
2024/01/17 02:57:49;;;;;;;11.10;7.07;;;1.60;99.90;;;;;;5024891;28;20206;-59
2024/01/17 03:00:18;;;;;;;10.10;6.67;;;1.40;99.90;;;;;;5025046;28;20211;-59
2024/01/17 03:02:45;;;;;;;10.17;6.40;;;1.00;99.90;;;;;;5024428;28;20226;-60
2024/01/17 03:05:11;;;;;;;9.10;6.60;;;0.70;99.90;;;;;;5021588;28;20238;-59
2024/01/17 03:07:38;;;;;;;12.80;6.73;;;0.80;99.90;;;;;;5021204;28;20207;-59
2024/01/17 03:10:05;;;;;;;11.30;6.50;;;0.90;99.90;;;;;;5022965;28;20680;-59
2024/01/17 03:12:32;;;;;;;11.23;6.90;;;0.60;99.90;;;;;;5024371;28;20234;-60
2024/01/17 03:14:59;;;;;;;10.33;6.63;;;0.30;99.90;;;;;;5023181;28;20257;-60
2024/01/17 03:17:27;;;;;;;9.97;6.60;;;0.20;99.90;;;;;;5021057;28;20210;-60
2024/01/17 03:19:54;;;;;;;9.10;6.20;;;0.10;99.90;;;;;;5021633;28;20256;-59
2024/01/17 03:22:20;;;;;;;9.77;6.57;;;0.30;99.90;;;;;;5024498;28;20224;-59
2024/01/17 03:24:47;;;;;;;9.07;6.83;;;0.50;99.90;;;;;;5024410;28;20256;-59
2024/01/17 03:27:14;;;;;;;9.53;6.57;;;0.70;99.90;;;;;;5021012;28;20252;-59
2024/01/17 03:29:40;;;;;;;12.53;7.10;;;0.60;99.90;;;;;;5020637;28;20307;-59
2024/01/17 03:32:07;;;;;;;8.47;6.63;;;0.60;99.90;;;;;;5022566;28;20227;-60
2024/01/17 03:34:35;;;;;;;11.37;7.17;;;0.70;99.90;;;;;;5023865;28;20230;-59
2024/01/17 03:37:02;;;;;;;9.17;6.50;;;0.80;99.90;;;;;;5015946;28;20253;-59
2024/01/17 03:39:29;;;;;;;9.10;7.03;;;1.00;99.90;;;;;;5024031;28;20253;-60
2024/01/17 03:41:55;;;;;;;11.27;6.40;;;1.30;99.90;;;;;;5024122;28;20226;-59
2024/01/17 03:44:23;;;;;;;10.57;6.60;;;1.50;99.90;;;;;;5020556;28;20199;-59
2024/01/17 03:46:49;;;;;;;11.07;6.37;;;1.70;99.90;;;;;;5020558;28;20242;-59
2024/01/17 03:49:16;;;;;;;10.87;6.37;;;1.90;99.90;;;;;;5023923;28;20229;-60
2024/01/17 03:51:44;;;;;;;12.07;7.23;;;1.90;99.90;;;;;;5045345;22;20246;-56
2024/01/17 03:54:11;;;;;;;11.30;6.40;;;2.00;99.90;;;;;;5011242;28;20699;-56
2024/01/17 03:56:37;;;;;;;11.50;6.70;;;2.10;99.90;;;;;;5011335;28;20214;-56
2024/01/17 03:59:05;;;;;;;10.03;6.67;;;2.10;99.90;;;;;;5011627;28;20207;-56
2024/01/17 04:01:32;;;;;;;10.07;7.13;;;2.10;99.90;;;;;;5011574;28;20293;-56
2024/01/17 04:03:59;;;;;;;10.80;7.63;;;2.00;99.90;;;;;;5011464;28;20214;-58
2024/01/17 04:06:28;;;;;;;11.23;7.20;;;2.00;99.90;;;;;;5015067;28;20203;-58
2024/01/17 04:08:57;;;;;;;10.40;6.90;;;2.00;99.90;;;;;;5015168;28;20213;-57
2024/01/17 04:11:24;;;;;;;11.27;7.60;;;2.00;99.90;;;;;;5015132;28;20590;-57
2024/01/17 04:13:51;;;;;;;10.83;7.17;;;2.00;99.90;;;;;;5015539;28;20202;-57
2024/01/17 04:16:18;;;;;;;10.40;7.13;;;1.90;99.90;;;;;;5006742;28;20731;-56
2024/01/17 04:18:45;;;;;;;12.83;7.60;;;1.80;99.90;;;;;;5015287;28;20253;-58
2024/01/17 04:21:18;;;;;;;12.23;7.40;;;1.80;99.90;;;;;;5014951;28;20747;-56
2024/01/17 04:23:45;;;;;;;11.70;8.13;;;1.70;99.90;;;;;;5014939;28;20698;-57
2024/01/17 04:26:23;;;;;;;12.57;7.53;;;1.70;99.90;;;;;;5014532;28;20710;-57
2024/01/17 04:28:49;;;;;;;13.40;8.00;;;1.80;99.90;;;;;;5015076;28;20221;-56
2024/01/17 04:31:23;;;;;;;12.10;8.03;;;1.70;99.90;;;;;;5014965;28;20207;-56
2024/01/17 04:33:50;;;;;;;13.43;7.93;;;1.70;99.90;;;;;;5014916;28;20250;-56
2024/01/17 04:36:17;;;;;;;10.93;7.73;;;1.70;99.90;;;;;;5014572;28;20230;-57
2024/01/17 04:38:44;;;;;;;11.00;7.77;;;1.70;99.90;;;;;;5014921;28;20277;-56
2024/01/17 04:41:11;;;;;;;10.23;7.70;;;1.80;99.90;;;;;;5014765;28;20214;-56
2024/01/17 04:43:40;;;;;;;15.17;8.87;;;1.80;99.90;;;;;;5014672;28;20231;-56
2024/01/17 04:46:06;;;;;;;12.53;8.53;;;1.70;99.90;;;;;;5014242;28;20218;-57
2024/01/17 04:48:33;;;;;;;12.30;9.47;;;1.70;99.90;;;;;;5015042;28;20211;-56
2024/01/17 04:51:00;;;;;;;12.90;7.97;;;1.80;99.90;;;;;;5014352;28;20203;-57
2024/01/17 04:53:26;;;;;;;11.77;8.40;;;1.70;99.90;;;;;;5014361;28;20234;-57
2024/01/17 04:55:54;;;;;;;11.07;8.10;;;1.60;99.90;;;;;;5014072;28;20223;-59
2024/01/17 04:58:21;;;;;;;12.10;8.20;;;1.50;99.90;;;;;;5014628;28;20210;-57
2024/01/17 05:00:49;;;;;;;12.63;8.53;;;1.30;99.90;;;;;;5014590;28;20218;-56
2024/01/17 05:03:15;;;;;;;12.93;8.20;;;1.20;99.90;;;;;;5014414;28;20223;-55
2024/01/17 05:05:43;;;;;;;14.70;9.40;;;1.10;99.90;;;;;;5013985;28;20206;-56
2024/01/17 05:08:10;;;;;;;12.53;8.37;;;1.20;99.90;;;;;;5014361;28;20577;-57
2024/01/17 05:10:37;;;;;;;12.73;8.60;;;1.20;99.90;;;;;;5014524;28;20230;-56
2024/01/17 05:13:03;;;;;;;12.53;8.53;;;1.20;99.90;;;;;;5014304;28;20712;-55
2024/01/17 05:15:30;;;;;;;12.40;9.20;;;1.30;99.90;;;;;;5013895;28;20736;-56
2024/01/17 05:17:58;;;;;;;12.07;8.30;;;1.40;99.90;;;;;;5013242;28;20211;-55
2024/01/17 05:20:25;;;;;;;11.90;8.73;;;1.50;99.90;;;;;;5014223;28;20261;-56
2024/01/17 05:22:51;;;;;;;13.20;9.70;;;1.50;99.90;;;;;;5014251;28;20610;-56
2024/01/17 05:25:18;;;;;;;11.80;8.47;;;1.50;99.90;;;;;;5013862;28;20199;-57
2024/01/17 05:27:50;;;;;;;11.60;8.67;;;1.50;99.90;;;;;;5014003;28;20715;-56
2024/01/17 05:30:18;;;;;;;12.43;8.83;;;1.50;99.90;;;;;;5014086;28;20207;-56
2024/01/17 05:32:45;;;;;;;12.80;9.43;;;1.60;99.90;;;;;;5013616;28;20317;-56
2024/01/17 05:35:14;;;;;;;13.23;8.97;;;1.60;99.90;;;;;;5013872;28;20582;-55
2024/01/17 05:37:41;;;;;;;12.73;9.03;;;1.70;99.90;;;;;;5014789;28;20272;-56
2024/01/17 05:40:09;;;;;;;11.37;7.77;;;1.80;99.90;;;;;;5014076;28;20241;-56
2024/01/17 05:42:36;;;;;;;11.27;8.40;;;1.90;99.90;;;;;;5013539;28;20265;-56
2024/01/17 05:45:04;;;;;;;12.43;8.73;;;1.90;99.90;;;;;;5013198;28;20648;-56
2024/01/17 05:47:31;;;;;;;12.77;9.70;;;2.00;99.90;;;;;;5013698;28;20214;-57
2024/01/17 05:49:57;;;;;;;11.67;8.73;;;2.00;99.90;;;;;;5014479;28;20713;-56
2024/01/17 05:52:25;;;;;;;11.43;8.97;;;1.90;99.90;;;;;;5015897;28;20238;-56
2024/01/17 05:54:52;;;;;;;14.27;8.97;;;1.90;99.90;;;;;;5014356;28;20214;-56
2024/01/17 05:57:19;;;;;;;13.67;9.67;;;1.90;99.90;;;;;;5013358;28;20198;-57
2024/01/17 05:59:46;;;;;;;15.10;10.33;;;1.90;99.90;;;;;;5013441;28;20217;-56
2024/01/17 06:02:13;;;;;;;13.30;9.73;;;2.00;99.90;;;;;;5013062;28;20227;-56
2024/01/17 06:04:40;;;;;;;13.93;10.23;;;2.10;99.90;;;;;;5013113;28;20688;-55
2024/01/17 06:07:07;;;;;;;14.60;9.77;;;2.00;99.90;;;;;;5013117;28;20214;-57
2024/01/17 06:09:35;;;;;;;13.77;10.10;;;2.00;99.90;;;;;;5013271;28;20207;-55
2024/01/17 06:12:01;;;;;;;14.97;10.67;;;2.10;99.90;;;;;;5012862;28;20234;-55
2024/01/17 06:14:28;;;;;;;13.67;9.67;;;2.20;99.90;;;;;;5012836;28;20207;-58
2024/01/17 06:16:55;;;;;;;15.17;10.80;;;2.20;99.90;;;;;;5013091;28;20223;-56
2024/01/17 06:19:21;;;;;;;15.33;10.30;;;2.20;99.90;;;;;;5012946;28;20316;-56
2024/01/17 06:21:48;;;;;;;16.80;10.43;;;2.20;99.90;;;;;;5013110;28;20231;-56
2024/01/17 06:24:15;;;;;;;14.37;9.80;;;2.30;99.90;;;;;;5012530;28;20754;-55
2024/01/17 06:26:43;;;;;;;14.13;10.00;;;2.40;99.90;;;;;;5012681;28;20778;-55
2024/01/17 06:29:10;;;;;;;15.80;10.30;;;2.50;99.90;;;;;;5012453;28;20265;-56
2024/01/17 06:31:38;;;;;;;12.43;9.97;;;2.60;99.90;;;;;;5012752;28;20298;-57
2024/01/17 06:34:04;;;;;;;13.57;10.27;;;2.70;99.90;;;;;;5012933;28;20314;-55
2024/01/17 06:36:32;;;;;;;12.77;9.43;;;2.80;99.90;;;;;;5012389;28;20647;-55
2024/01/17 06:38:59;;;;;;;13.00;9.20;;;2.90;99.90;;;;;;5012520;28;20214;-56
2024/01/17 06:41:26;;;;;;;13.33;8.77;;;2.90;99.90;;;;;;5012415;28;20615;-56
2024/01/17 06:43:54;;;;;;;11.80;8.80;;;2.90;99.90;;;;;;5012489;28;20695;-56
2024/01/17 06:46:20;;;;;;;11.40;8.77;;;2.90;99.90;;;;;;5012481;28;20608;-56
2024/01/17 06:48:47;;;;;;;11.90;9.23;;;3.00;99.90;;;;;;5012390;28;20234;-55
2024/01/17 06:51:15;;;;;;;11.70;8.93;;;3.10;99.90;;;;;;5012340;28;20310;-55
2024/01/17 06:53:41;;;;;;;15.03;9.00;;;3.20;99.90;;;;;;5011781;28;20237;-54
2024/01/17 06:56:08;;;;;;;13.03;8.83;;;3.30;99.90;;;;;;5011709;28;20230;-56
2024/01/17 06:58:35;;;;;;;11.83;8.93;;;3.40;99.90;;;;;;5012293;28;20574;-55
2024/01/17 07:01:04;;;;;;;10.17;7.83;;;3.40;99.90;;;;;;5012314;28;20229;-56
2024/01/17 07:03:30;;;;;;;11.80;8.10;;;3.40;99.90;;;;;;5012033;28;20704;-56
2024/01/17 07:05:57;;;;;;;10.70;8.23;;;3.50;99.90;;;;;;5011964;28;20207;-56
2024/01/17 07:08:24;;;;;;;9.93;7.90;;;3.50;99.90;;;;;;5003920;28;20211;-57
2024/01/17 07:10:50;;;;;;;11.13;8.57;;;3.70;99.90;;;;;;5012158;28;21394;-56
2024/01/17 07:13:18;;;;;;;9.83;7.60;;;3.80;99.90;;;;;;5011778;28;20652;-56
2024/01/17 07:15:44;;;;;;;10.23;7.40;;;3.80;99.90;;;;;;5011821;28;20300;-58
2024/01/17 07:18:12;;;;;;;10.70;8.20;;;4.00;99.90;;;;;;5011722;28;20302;-56
2024/01/17 07:20:39;;;;;;;10.53;7.53;;;4.10;99.90;;;;;;5011821;28;20207;-55
2024/01/17 07:23:08;;;;;;;11.23;7.70;;;4.20;99.90;;;;;;5011489;28;20223;-55
2024/01/17 07:25:34;;;;;;;9.27;6.90;;;4.20;99.90;;;;;;5011867;28;20616;-58
2024/01/17 07:28:01;;;;;;;9.30;7.53;;;4.10;99.90;;;;;;5011871;28;20207;-55
2024/01/17 07:30:28;;;;;;;11.30;7.90;;;4.20;99.90;;;;;;5011845;28;20203;-55
2024/01/17 07:32:54;;;;;;;9.50;7.17;;;4.30;99.90;;;;;;5011414;28;20284;-57
2024/01/17 07:35:22;;;;;;;10.10;7.40;;;4.40;99.90;;;;;;5010971;28;20614;-55
2024/01/17 07:37:50;;;;;;;10.37;7.63;;;4.40;99.90;;;;;;5011473;28;20629;-56
2024/01/17 07:40:17;;;;;;;10.40;8.07;;;4.50;99.90;;;;;;5011071;28;20673;-56
2024/01/17 07:42:44;;;;;;;10.07;7.83;;;4.50;99.90;;;;;;5011600;28;20226;-56
2024/01/17 07:45:11;;;;;;;9.83;7.60;;;4.50;99.90;;;;;;5011029;28;20307;-55
2024/01/17 07:47:38;;;;;;;11.00;7.90;;;4.50;99.90;;;;;;5011586;28;20253;-56
2024/01/17 07:50:05;;;;;;;9.67;7.57;;;4.50;99.90;;;;;;5011346;28;20202;-58
2024/01/17 07:52:33;;;;;;;11.23;7.47;;;4.40;99.90;;;;;;5011823;28;20230;-55
2024/01/17 07:55:00;;;;;;;9.00;7.20;;;4.30;99.90;;;;;;5011535;28;20215;-57
2024/01/17 07:57:27;;;;;;;8.40;6.70;;;4.30;99.90;;;;;;5011108;28;20223;-56
2024/01/17 07:59:54;;;;;;;15.23;12.63;;;4.20;99.90;;;;;;5011438;28;20334;-55
2024/01/17 08:02:20;;;;;;;8.80;7.03;;;4.20;99.90;;;;;;5011132;28;20589;-55
2024/01/17 08:04:48;;;;;;;9.00;6.80;;;4.10;99.90;;;;;;5010942;28;20207;-55
2024/01/17 08:07:15;;;;;;;8.33;6.90;;;4.10;99.90;;;;;;5011087;28;20641;-57
2024/01/17 08:09:43;;;;;;;11.33;7.50;;;4.20;99.90;;;;;;5011446;28;20215;-54
2024/01/17 08:12:10;;;;;;;9.83;7.40;;;4.30;99.90;;;;;;5011145;28;20285;-55
2024/01/17 08:14:36;;;;;;;9.63;7.43;;;4.40;99.90;;;;;;5011152;28;20215;-54
2024/01/17 08:17:03;;;;;;;9.30;6.80;;;4.50;99.90;;;;;;5010904;28;20227;-58
2024/01/17 08:19:30;;;;;;;9.77;7.47;;;4.60;99.90;;;;;;5011168;28;20237;-55
2024/01/17 08:21:57;;;;;;;13.07;8.27;;;4.70;99.90;;;;;;5011260;28;20227;-55
2024/01/17 08:24:24;;;;;;;25.03;8.30;;;4.70;99.90;;;;;;5010855;28;20203;-57
2024/01/17 08:26:52;;;;;;;27.37;8.83;;;4.70;99.90;;;;;;5011147;28;20203;-55
2024/01/17 08:29:19;;;;;;;23.03;9.13;;;4.70;99.90;;;;;;5010987;28;20206;-54
2024/01/17 08:31:45;;;;;;;13.00;7.97;;;4.80;99.90;;;;;;5011007;28;20522;-54
2024/01/17 08:34:12;;;;;;;28.50;9.70;;;4.90;99.90;;;;;;5010910;28;20231;-55
2024/01/17 08:36:39;;;;;;;59.10;10.40;;;4.90;99.90;;;;;;5011018;28;20233;-55
2024/01/17 08:39:06;;;;;;;17.33;8.57;;;4.90;99.90;;;;;;5011239;28;20482;-56
2024/01/17 08:41:33;;;;;;;15.33;8.00;;;4.90;99.90;;;;;;5011098;28;20246;-55
2024/01/17 08:44:01;;;;;;;11.87;7.93;;;4.90;99.90;;;;;;5010920;28;20211;-56
2024/01/17 08:46:28;;;;;;;9.73;7.43;;;4.90;99.90;;;;;;5002893;28;20203;-59
2024/01/17 08:48:55;;;;;;;14.10;7.50;;;5.00;99.90;;;;;;5011221;28;20234;-56
2024/01/17 08:51:24;;;;;;;17.03;7.67;;;5.00;99.90;;;;;;5011388;28;20239;-56
2024/01/17 08:53:50;;;;;;;12.50;8.10;;;5.00;99.90;;;;;;5014349;28;20305;-56
2024/01/17 08:56:18;;;;;;;17.77;7.80;;;5.00;99.90;;;;;;5014022;28;20226;-55
2024/01/17 08:58:45;;;;;;;14.03;6.97;;;5.10;99.90;;;;;;5014431;28;20639;-55
2024/01/17 09:01:14;;;;;;;30.93;8.73;;;5.10;99.90;;;;;;5014326;28;20237;-56
2024/01/17 09:03:43;;;;;;;19.50;7.87;;;5.10;99.90;;;;;;5014347;28;20246;-56
2024/01/17 09:06:10;;;;;;;15.83;8.53;;;5.00;99.90;;;;;;5014084;28;20268;-56
2024/01/17 09:08:37;;;;;;;27.03;8.83;;;5.00;99.90;;;;;;5014379;28;20226;-55
2024/01/17 09:11:05;;;;;;;13.53;8.27;;;5.00;99.90;;;;;;5014000;28;20207;-55
2024/01/17 09:13:32;;;;;;;18.43;8.50;;;5.00;99.90;;;;;;5014062;28;20226;-55
2024/01/17 09:15:59;;;;;;;21.07;8.03;;;5.10;99.90;;;;;;5013854;28;20213;-56
2024/01/17 09:18:27;;;;;;;13.70;7.40;;;5.20;99.90;;;;;;5014156;28;20211;-55
2024/01/17 09:20:53;;;;;;;11.93;7.87;;;5.10;99.90;;;;;;5014225;28;20234;-56
2024/01/17 09:23:20;;;;;;;11.40;6.97;;;5.20;99.90;;;;;;5014301;28;20258;-55
2024/01/17 09:25:47;;;;;;;15.03;7.50;;;5.20;99.90;;;;;;5013794;28;20234;-61
2024/01/17 09:28:13;;;;;;;16.33;6.80;;;5.20;99.90;;;;;;5014211;28;20218;-57
2024/01/17 09:30:40;;;;;;;26.57;8.33;;;5.20;99.90;;;;;;5014541;28;20207;-57
2024/01/17 09:33:07;;;;;;;16.57;7.33;;;5.20;99.90;;;;;;5014311;28;20262;-57
2024/01/17 09:35:36;;;;;;;12.27;6.67;;;5.30;99.90;;;;;;5014221;28;20211;-56
2024/01/17 09:38:06;;;;;;;7.77;5.83;;;5.30;99.90;;;;;;5014235;28;20231;-56
2024/01/17 09:40:33;;;;;;;13.33;6.50;;;5.30;99.90;;;;;;5013960;28;20206;-55
2024/01/17 09:43:00;;;;;;;9.10;6.70;;;5.40;99.90;;;;;;5014581;28;20309;-56
2024/01/17 09:45:31;;;;;;;8.93;6.17;;;5.50;99.90;;;;;;5014214;28;20235;-56
2024/01/17 09:47:58;;;;;;;9.73;6.67;;;5.70;99.90;;;;;;5014660;28;20261;-58
2024/01/17 09:50:25;;;;;;;20.30;9.53;;;6.00;99.90;;;;;;5014504;28;20219;-57
2024/01/17 09:52:54;;;;;;;66.47;10.83;;;6.20;99.90;;;;;;5013554;28;20292;-61
2024/01/17 09:55:22;;;;;;;26.67;17.03;;;6.40;99.90;;;;;;5013097;28;20310;-61
2024/01/17 09:57:52;;;;;;;18.07;7.03;;;6.50;99.90;;;;;;5013358;28;20223;-61
2024/01/17 10:00:19;;;;;;;18.03;6.80;;;6.70;99.90;;;;;;5013143;28;20218;-61
2024/01/17 10:02:48;;;;;;;9.50;6.33;;;6.70;99.90;;;;;;5012712;28;20241;-60
2024/01/17 10:05:16;;;;;;;8.67;5.63;;;6.60;99.90;;;;;;5012851;28;20628;-61
2024/01/17 10:07:45;;;;;;;9.27;5.47;;;6.50;99.90;;;;;;5013059;28;20211;-61
2024/01/17 10:10:13;;;;;;;8.17;5.90;;;6.30;99.90;;;;;;5013260;28;20211;-61
2024/01/17 10:12:41;;;;;;;6.17;4.90;;;6.30;99.90;;;;;;5013118;28;20272;-60
2024/01/17 10:15:12;;;;;;;6.40;4.80;;;6.20;99.90;;;;;;5012570;28;20207;-59
2024/01/17 10:17:39;;;;;;;10.37;5.03;;;6.20;99.90;;;;;;5013006;28;20229;-60
2024/01/17 10:20:08;;;;;;;11.47;4.60;;;6.20;99.90;;;;;;5012701;28;20207;-59
2024/01/17 10:22:34;;;;;;;7.00;4.40;;;6.20;99.90;;;;;;5012962;28;20223;-60
2024/01/17 10:25:01;;;;;;;12.40;4.63;;;6.20;99.90;;;;;;5012910;28;20645;-60
2024/01/17 10:27:30;;;;;;;11.27;5.27;;;6.20;99.90;;;;;;5012616;28;20202;-61
2024/01/17 10:29:56;;;;;;;24.00;7.00;;;6.20;99.90;;;;;;5012887;28;20206;-61
2024/01/17 10:32:23;;;;;;;45.23;8.50;;;6.20;99.90;;;;;;5012591;28;20222;-60
2024/01/17 10:34:50;;;;;;;29.60;6.83;;;6.20;99.90;;;;;;5012275;28;20677;-61
2024/01/17 10:37:18;;;;;;;21.13;6.20;;;6.20;99.90;;;;;;5012194;28;20253;-60
2024/01/17 10:39:45;;;;;;;22.43;5.47;;;6.30;99.90;;;;;;5012692;28;20214;-62
2024/01/17 10:42:21;;;;;;;10.00;4.43;;;6.30;99.90;;;;;;5012515;28;20223;-60
2024/01/17 10:44:48;;;;;;;9.10;4.87;;;6.30;99.90;;;;;;5012219;28;20230;-60
2024/01/17 10:47:15;;;;;;;4.40;3.63;;;6.30;99.90;;;;;;5011968;28;20622;-60
2024/01/17 10:49:43;;;;;;;8.03;4.27;;;6.30;99.90;;;;;;5012566;28;20203;-61
2024/01/17 10:52:14;;;;;;;6.50;4.20;;;6.30;99.90;;;;;;5012117;28;20277;-60
2024/01/17 10:54:50;;;;;;;5.87;4.43;;;6.30;99.90;;;;;;5012233;28;20330;-60
2024/01/17 10:57:20;;;;;;;9.03;4.43;;;6.20;99.90;;;;;;5012088;28;20253;-60
2024/01/17 10:59:50;;;;;;;10.53;4.27;;;6.20;99.90;;;;;;5012071;28;20234;-60
2024/01/17 11:02:19;;;;;;;19.30;5.40;;;6.20;99.90;;;;;;5011924;28;20226;-61
2024/01/17 11:04:48;;;;;;;6.77;4.10;;;6.10;99.90;;;;;;5012035;28;20207;-60
2024/01/17 11:07:16;;;;;;;5.67;3.87;;;6.10;99.90;;;;;;5011815;28;20206;-60
2024/01/17 11:09:45;;;;;;;5.57;3.53;;;6.00;99.90;;;;;;5012027;28;20209;-61
2024/01/17 11:12:15;;;;;;;4.80;4.07;;;5.90;99.90;;;;;;5011655;28;20223;-61
2024/01/17 11:14:43;;;;;;;4.70;3.70;;;6.00;99.90;;;;;;5011504;28;20226;-61
2024/01/17 11:17:12;;;;;;;4.40;3.60;;;5.90;99.90;;;;;;5011682;28;20222;-61
2024/01/17 11:19:41;;;;;;;6.27;3.60;;;5.80;99.90;;;;;;5012419;28;20209;-60
2024/01/17 11:22:08;;;;;;;6.77;3.80;;;5.70;99.90;;;;;;5012476;28;20235;-60
2024/01/17 11:24:41;;;;;;;4.83;3.40;;;5.70;99.90;;;;;;5012148;28;20199;-58
2024/01/17 11:27:16;;;;;;;4.57;2.83;;;5.80;99.90;;;;;;5012366;28;20199;-60
2024/01/17 11:29:52;;;;;;;3.90;3.00;;;5.80;99.90;;;;;;5011875;28;20210;-60
2024/01/17 11:32:28;;;;;;;3.73;3.13;;;5.90;99.90;;;;;;5011552;28;20223;-60
2024/01/17 11:34:54;;;;;;;3.90;3.10;;;6.10;99.90;;;;;;5011665;28;20202;-60
2024/01/17 11:37:33;;;;;;;3.37;2.90;;;6.30;99.90;;;;;;5011471;28;20223;-60
2024/01/17 11:40:01;;;;;;;3.20;2.50;;;6.40;99.90;;;;;;5011921;28;20253;-59
2024/01/17 11:42:28;;;;;;;3.03;2.43;;;6.60;99.90;;;;;;5011612;28;20607;-60
2024/01/17 11:44:55;;;;;;;2.90;2.40;;;6.50;99.90;;;;;;5011598;28;20203;-64
2024/01/17 11:47:23;;;;;;;3.30;3.00;;;6.60;99.90;;;;;;5011373;28;20218;-62
2024/01/17 11:49:49;;;;;;;4.20;2.60;;;6.70;99.90;;;;;;5011683;28;20699;-61
2024/01/17 11:52:27;;;;;;;3.80;2.63;;;6.70;99.90;;;;;;5011601;28;20652;-63
2024/01/17 11:54:54;;;;;;;5.27;2.83;;;6.60;99.90;;;;;;5011297;28;20622;-62
2024/01/17 11:57:21;;;;;;;3.73;2.73;;;6.60;99.90;;;;;;5011261;28;20870;-63
2024/01/17 12:00:04;;;;;;;3.27;2.70;;;6.60;99.90;;;;;;5011318;28;20587;-61
2024/01/17 12:02:40;;;;;;;2.97;2.37;;;6.60;99.90;;;;;;5009333;28;20230;-65
2024/01/17 12:05:07;;;;;;;5.13;3.03;;;6.70;99.90;;;;;;5006544;28;20435;-65
2024/01/17 12:07:38;;;;;;;2.97;2.40;;;6.90;99.90;;;;;;5003723;28;20286;-65
2024/01/17 12:10:09;;;;;;;5.00;2.47;;;6.90;99.90;;;;;;5011000;28;20691;-65
2024/01/17 12:12:37;;;;;;;2.77;2.20;;;7.00;99.90;;;;;;5003356;28;20230;-64
2024/01/17 12:15:05;;;;;;;2.87;2.23;;;7.20;99.90;;;;;;5011093;28;20211;-63
2024/01/17 12:17:33;;;;;;;2.67;2.03;;;7.30;99.90;;;;;;5010979;28;20223;-63
2024/01/17 12:20:01;;;;;;;2.47;2.20;;;7.30;99.90;;;;;;5010983;28;20222;-62
2024/01/17 12:22:28;;;;;;;3.43;2.17;;;7.30;99.90;;;;;;5011237;28;20239;-66
2024/01/17 12:24:56;;;;;;;4.23;2.40;;;7.40;99.90;;;;;;5010952;28;20229;-64
2024/01/17 12:27:23;;;;;;;5.33;2.60;;;7.50;99.90;;;;;;5013929;28;20226;-64
2024/01/17 12:29:54;;;;;;;2.87;2.17;;;7.70;99.90;;;;;;5015112;28;20207;-65
2024/01/17 12:32:21;;;;;;;2.23;1.83;;;7.80;99.90;;;;;;5014143;28;20226;-66
2024/01/17 12:34:47;;;;;;;8.13;4.03;;;8.00;99.90;;;;;;5014737;28;20206;-66
2024/01/17 12:37:16;;;;;;;4.47;3.30;;;8.10;99.90;;;;;;5014803;28;20288;-64
2024/01/17 12:39:43;;;;;;;5.63;4.43;;;8.20;99.90;;;;;;5014911;28;20215;-65
2024/01/17 12:42:10;;;;;;;3.53;3.00;;;8.20;99.90;;;;;;5014893;28;20235;-65
2024/01/17 12:44:37;;;;;;;6.90;3.00;;;8.20;99.90;;;;;;5014276;28;20263;-65
2024/01/17 12:47:04;;;;;;;21.77;13.93;;;8.20;99.90;;;;;;5014175;28;20211;-64
2024/01/17 12:49:31;;;;;;;4.70;3.30;;;8.20;99.90;;;;;;5013979;28;20211;-67